sensor_id;sensor_type;location;lat;lon;timestamp;pressure;altitude;pressure_sealevel;temperature;humidity
9423;BME280;4750;49.506;10.400;2022-07-22T00:00:19;98352.91;;;16.87;73.72
9423;BME280;4750;49.506;10.400;2022-07-22T00:03:04;98387.31;;;17.01;73.81
9423;BME280;4750;49.506;10.400;2022-07-22T00:05:48;98377.25;;;16.91;73.74
9423;BME280;4750;49.506;10.400;2022-07-22T00:08:32;98366.28;;;16.77;73.72
9423;BME280;4750;49.506;10.400;2022-07-22T00:11:16;98349.63;;;16.64;73.95
9423;BME280;4750;49.506;10.400;2022-07-22T00:14:00;98361.94;;;16.76;74.02
9423;BME280;4750;49.506;10.400;2022-07-22T00:16:45;98354.13;;;16.67;74.13
9423;BME280;4750;49.506;10.400;2022-07-22T00:19:28;98334.03;;;16.45;74.29
9423;BME280;4750;49.506;10.400;2022-07-22T00:22:12;98349.75;;;16.56;74.44
9423;BME280;4750;49.506;10.400;2022-07-22T00:24:56;98377.66;;;16.60;74.63
9423;BME280;4750;49.506;10.400;2022-07-22T00:27:40;98388.88;;;16.40;74.89
9423;BME280;4750;49.506;10.400;2022-07-22T00:30:24;98360.41;;;16.21;75.40
9423;BME280;4750;49.506;10.400;2022-07-22T00:33:08;98384.22;;;16.35;75.58
9423;BME280;4750;49.506;10.400;2022-07-22T00:35:52;98361.84;;;16.12;75.59
9423;BME280;4750;49.506;10.400;2022-07-22T00:38:36;98377.81;;;16.34;76.15
9423;BME280;4750;49.506;10.400;2022-07-22T00:41:20;98367.03;;;16.33;76.23
9423;BME280;4750;49.506;10.400;2022-07-22T00:44:06;98394.03;;;16.51;76.35
9423;BME280;4750;49.506;10.400;2022-07-22T00:46:50;98377.47;;;16.30;76.03
9423;BME280;4750;49.506;10.400;2022-07-22T00:49:34;98391.19;;;16.34;76.03
9423;BME280;4750;49.506;10.400;2022-07-22T00:52:19;98362.91;;;15.99;75.96
9423;BME280;4750;49.506;10.400;2022-07-22T00:55:06;98390.66;;;16.00;76.71
9423;BME280;4750;49.506;10.400;2022-07-22T00:57:50;98366.56;;;15.92;77.30
9423;BME280;4750;49.506;10.400;2022-07-22T01:00:35;98366.84;;;16.04;77.65
9423;BME280;4750;49.506;10.400;2022-07-22T01:03:19;98384.25;;;16.17;77.79
9423;BME280;4750;49.506;10.400;2022-07-22T01:06:04;98375.41;;;16.13;77.61
9423;BME280;4750;49.506;10.400;2022-07-22T01:08:48;98342.72;;;15.77;77.34
9423;BME280;4750;49.506;10.400;2022-07-22T01:11:32;98371.09;;;15.95;77.38
9423;BME280;4750;49.506;10.400;2022-07-22T01:14:17;98362.31;;;15.83;77.42
9423;BME280;4750;49.506;10.400;2022-07-22T01:17:01;98360.84;;;15.82;77.54
9423;BME280;4750;49.506;10.400;2022-07-22T01:19:45;98372.91;;;15.82;77.52
9423;BME280;4750;49.506;10.400;2022-07-22T01:22:30;98343.03;;;15.46;77.67
9423;BME280;4750;49.506;10.400;2022-07-22T01:25:15;98368.53;;;15.64;78.05
9423;BME280;4750;49.506;10.400;2022-07-22T01:28:09;98350.19;;;15.47;78.46
9423;BME280;4750;49.506;10.400;2022-07-22T01:30:54;98397.50;;;15.72;78.67
9423;BME280;4750;49.506;10.400;2022-07-22T01:33:38;98362.19;;;15.56;78.66
9423;BME280;4750;49.506;10.400;2022-07-22T01:36:22;98370.19;;;15.49;78.40
9423;BME280;4750;49.506;10.400;2022-07-22T01:39:06;98331.66;;;15.11;78.40
9423;BME280;4750;49.506;10.400;2022-07-22T01:41:50;98378.25;;;15.28;78.69
9423;BME280;4750;49.506;10.400;2022-07-22T01:44:34;98313.63;;;14.74;78.88
9423;BME280;4750;49.506;10.400;2022-07-22T01:47:18;98365.28;;;15.25;79.40
9423;BME280;4750;49.506;10.400;2022-07-22T01:50:05;98375.03;;;15.31;79.96
9423;BME280;4750;49.506;10.400;2022-07-22T01:52:49;98360.31;;;15.08;79.94
9423;BME280;4750;49.506;10.400;2022-07-22T01:55:34;98382.59;;;15.29;80.11
9423;BME280;4750;49.506;10.400;2022-07-22T01:58:18;98382.25;;;15.25;79.99
9423;BME280;4750;49.506;10.400;2022-07-22T02:01:03;98368.63;;;15.06;80.06
9423;BME280;4750;49.506;10.400;2022-07-22T02:03:48;98365.00;;;15.13;80.33
9423;BME280;4750;49.506;10.400;2022-07-22T02:06:32;98382.53;;;15.11;80.82
9423;BME280;4750;49.506;10.400;2022-07-22T02:09:16;98365.91;;;14.90;80.75
9423;BME280;4750;49.506;10.400;2022-07-22T02:12:03;98339.03;;;14.82;81.00
9423;BME280;4750;49.506;10.400;2022-07-22T02:14:53;98379.38;;;15.07;81.39
9423;BME280;4750;49.506;10.400;2022-07-22T02:17:38;98365.28;;;15.00;81.41
9423;BME280;4750;49.506;10.400;2022-07-22T02:20:24;98364.13;;;15.03;81.57
9423;BME280;4750;49.506;10.400;2022-07-22T02:23:09;98372.63;;;15.03;81.27
9423;BME280;4750;49.506;10.400;2022-07-22T02:25:55;98385.19;;;15.09;80.96
9423;BME280;4750;49.506;10.400;2022-07-22T02:28:39;98359.16;;;14.86;81.13
9423;BME280;4750;49.506;10.400;2022-07-22T02:31:23;98356.50;;;14.88;81.46
9423;BME280;4750;49.506;10.400;2022-07-22T02:34:07;98362.75;;;14.78;81.97
9423;BME280;4750;49.506;10.400;2022-07-22T02:36:52;98375.63;;;14.72;82.19
9423;BME280;4750;49.506;10.400;2022-07-22T02:39:37;98376.25;;;14.62;81.92
9423;BME280;4750;49.506;10.400;2022-07-22T02:42:21;98386.28;;;14.89;81.98
9423;BME280;4750;49.506;10.400;2022-07-22T02:45:09;98381.50;;;14.99;81.99
9423;BME280;4750;49.506;10.400;2022-07-22T02:47:55;98333.19;;;14.79;82.69
9423;BME280;4750;49.506;10.400;2022-07-22T02:50:45;98362.63;;;15.02;83.46
9423;BME280;4750;49.506;10.400;2022-07-22T02:53:29;98371.47;;;15.06;84.09
9423;BME280;4750;49.506;10.400;2022-07-22T02:56:16;98387.44;;;15.11;84.49
9423;BME280;4750;49.506;10.400;2022-07-22T02:59:01;98385.75;;;15.08;84.99
9423;BME280;4750;49.506;10.400;2022-07-22T03:01:44;98377.84;;;15.06;85.23
9423;BME280;4750;49.506;10.400;2022-07-22T03:04:29;98367.34;;;14.99;85.29
9423;BME280;4750;49.506;10.400;2022-07-22T03:07:12;98375.47;;;14.95;85.50
9423;BME280;4750;49.506;10.400;2022-07-22T03:09:58;98382.66;;;14.96;85.90
9423;BME280;4750;49.506;10.400;2022-07-22T03:12:42;98372.94;;;14.82;85.95
9423;BME280;4750;49.506;10.400;2022-07-22T03:15:26;98393.94;;;14.96;86.26
9423;BME280;4750;49.506;10.400;2022-07-22T03:18:10;98370.72;;;14.72;86.33
9423;BME280;4750;49.506;10.400;2022-07-22T03:20:54;98401.56;;;14.86;86.34
9423;BME280;4750;49.506;10.400;2022-07-22T03:23:39;98374.84;;;14.79;86.29
9423;BME280;4750;49.506;10.400;2022-07-22T03:26:23;98358.25;;;14.75;86.13
9423;BME280;4750;49.506;10.400;2022-07-22T03:29:07;98358.25;;;14.75;86.12
9423;BME280;4750;49.506;10.400;2022-07-22T03:31:52;98374.78;;;14.87;86.45
9423;BME280;4750;49.506;10.400;2022-07-22T03:34:49;98369.56;;;14.75;86.33
9423;BME280;4750;49.506;10.400;2022-07-22T03:37:34;98387.16;;;14.18;85.76
9423;BME280;4750;49.506;10.400;2022-07-22T03:40:18;98396.16;;;14.24;85.52
9423;BME280;4750;49.506;10.400;2022-07-22T03:43:02;98354.47;;;13.91;85.31
9423;BME280;4750;49.506;10.400;2022-07-22T03:45:46;98394.63;;;14.23;85.31
9423;BME280;4750;49.506;10.400;2022-07-22T03:48:30;98393.50;;;14.26;85.02
9423;BME280;4750;49.506;10.400;2022-07-22T03:51:15;98373.97;;;14.12;84.65
9423;BME280;4750;49.506;10.400;2022-07-22T03:53:59;98366.25;;;14.13;84.74
9423;BME280;4750;49.506;10.400;2022-07-22T03:56:43;98394.63;;;14.31;84.55
9423;BME280;4750;49.506;10.400;2022-07-22T03:59:27;98375.59;;;14.31;84.46
9423;BME280;4750;49.506;10.400;2022-07-22T04:02:11;98396.47;;;14.36;84.00
9423;BME280;4750;49.506;10.400;2022-07-22T04:04:54;98402.53;;;14.32;83.85
9423;BME280;4750;49.506;10.400;2022-07-22T04:07:39;98408.19;;;14.32;84.04
9423;BME280;4750;49.506;10.400;2022-07-22T04:10:24;98391.97;;;14.40;84.17
9423;BME280;4750;49.506;10.400;2022-07-22T04:13:08;98362.63;;;14.28;84.18
9423;BME280;4750;49.506;10.400;2022-07-22T04:16:00;98333.00;;;13.96;84.07
9423;BME280;4750;49.506;10.400;2022-07-22T04:18:45;98381.03;;;14.37;84.28
9423;BME280;4750;49.506;10.400;2022-07-22T04:21:30;98392.22;;;14.68;84.18
9423;BME280;4750;49.506;10.400;2022-07-22T04:24:16;98382.88;;;14.50;83.96
9423;BME280;4750;49.506;10.400;2022-07-22T04:27:00;98345.16;;;14.22;83.68
9423;BME280;4750;49.506;10.400;2022-07-22T04:29:44;98369.72;;;14.44;84.01
9423;BME280;4750;49.506;10.400;2022-07-22T04:32:29;98372.53;;;14.44;83.89
9423;BME280;4750;49.506;10.400;2022-07-22T04:35:12;98385.69;;;14.50;83.86
9423;BME280;4750;49.506;10.400;2022-07-22T04:38:05;98360.97;;;14.58;83.91
9423;BME280;4750;49.506;10.400;2022-07-22T04:40:50;98368.69;;;14.65;83.99
9423;BME280;4750;49.506;10.400;2022-07-22T04:43:34;98397.28;;;15.02;83.93
9423;BME280;4750;49.506;10.400;2022-07-22T04:46:19;98375.13;;;14.91;83.71
9423;BME280;4750;49.506;10.400;2022-07-22T04:49:02;98394.31;;;15.25;83.79
9423;BME280;4750;49.506;10.400;2022-07-22T04:51:46;98362.75;;;15.11;83.52
9423;BME280;4750;49.506;10.400;2022-07-22T04:54:40;98375.25;;;15.26;83.28
9423;BME280;4750;49.506;10.400;2022-07-22T04:57:25;98402.72;;;15.58;83.21
9423;BME280;4750;49.506;10.400;2022-07-22T05:00:10;98370.81;;;15.40;83.13
9423;BME280;4750;49.506;10.400;2022-07-22T05:03:04;98378.53;;;15.65;82.96
9423;BME280;4750;49.506;10.400;2022-07-22T05:05:48;98371.84;;;15.70;82.82
9423;BME280;4750;49.506;10.400;2022-07-22T05:08:40;98381.41;;;16.00;82.51
9423;BME280;4750;49.506;10.400;2022-07-22T05:11:24;98397.03;;;16.36;81.98
9423;BME280;4750;49.506;10.400;2022-07-22T05:14:10;98382.47;;;16.67;81.70
9423;BME280;4750;49.506;10.400;2022-07-22T05:16:54;98378.34;;;17.42;80.84
9423;BME280;4750;49.506;10.400;2022-07-22T05:19:38;98369.03;;;19.18;78.67
9423;BME280;4750;49.506;10.400;2022-07-22T05:22:24;98385.81;;;21.81;73.10
9423;BME280;4750;49.506;10.400;2022-07-22T05:25:09;98376.56;;;23.10;65.28
9423;BME280;4750;49.506;10.400;2022-07-22T05:27:54;98381.91;;;24.43;59.52
9423;BME280;4750;49.506;10.400;2022-07-22T05:30:50;98403.13;;;25.77;54.97
9423;BME280;4750;49.506;10.400;2022-07-22T05:33:34;98383.84;;;27.04;50.13
9423;BME280;4750;49.506;10.400;2022-07-22T05:36:24;98386.34;;;27.94;48.01
9423;BME280;4750;49.506;10.400;2022-07-22T05:39:08;98383.78;;;28.02;46.72
9423;BME280;4750;49.506;10.400;2022-07-22T05:42:03;98379.75;;;28.56;44.32
9423;BME280;4750;49.506;10.400;2022-07-22T05:44:47;98381.97;;;29.28;43.58
9423;BME280;4750;49.506;10.400;2022-07-22T05:47:32;98376.75;;;29.48;41.96
9423;BME280;4750;49.506;10.400;2022-07-22T05:50:16;98367.88;;;28.92;42.76
9423;BME280;4750;49.506;10.400;2022-07-22T05:53:00;98371.38;;;29.89;42.67
9423;BME280;4750;49.506;10.400;2022-07-22T05:55:44;98394.84;;;29.75;41.52
9423;BME280;4750;49.506;10.400;2022-07-22T05:58:28;98376.19;;;28.79;42.54
9423;BME280;4750;49.506;10.400;2022-07-22T06:01:13;98369.09;;;29.33;42.43
9423;BME280;4750;49.506;10.400;2022-07-22T06:03:57;98371.53;;;29.69;40.94
9423;BME280;4750;49.506;10.400;2022-07-22T06:06:41;98378.53;;;30.43;40.36
9423;BME280;4750;49.506;10.400;2022-07-22T06:09:26;98404.97;;;30.91;38.74
9423;BME280;4750;49.506;10.400;2022-07-22T06:12:10;98384.13;;;29.53;40.68
9423;BME280;4750;49.506;10.400;2022-07-22T06:14:54;98387.53;;;29.72;40.76
9423;BME280;4750;49.506;10.400;2022-07-22T06:17:38;98400.13;;;29.57;41.62
9423;BME280;4750;49.506;10.400;2022-07-22T06:20:23;98377.03;;;29.85;40.59
9423;BME280;4750;49.506;10.400;2022-07-22T06:23:07;98391.06;;;29.95;40.66
9423;BME280;4750;49.506;10.400;2022-07-22T06:25:52;98386.28;;;29.27;41.06
9423;BME280;4750;49.506;10.400;2022-07-22T06:28:42;98392.00;;;29.51;41.83
9423;BME280;4750;49.506;10.400;2022-07-22T06:31:26;98393.75;;;29.12;41.19
9423;BME280;4750;49.506;10.400;2022-07-22T06:34:10;98382.72;;;28.36;43.48
9423;BME280;4750;49.506;10.400;2022-07-22T06:37:14;98390.16;;;29.62;41.51
9423;BME280;4750;49.506;10.400;2022-07-22T06:39:58;98387.94;;;29.60;40.73
9423;BME280;4750;49.506;10.400;2022-07-22T06:43:03;98397.50;;;29.16;42.34
9423;BME280;4750;49.506;10.400;2022-07-22T06:46:07;98387.31;;;29.64;41.04
9423;BME280;4750;49.506;10.400;2022-07-22T06:49:04;98381.41;;;29.86;40.22
9423;BME280;4750;49.506;10.400;2022-07-22T06:51:51;98386.31;;;30.08;39.92
9423;BME280;4750;49.506;10.400;2022-07-22T06:54:35;98383.97;;;30.59;38.85
9423;BME280;4750;49.506;10.400;2022-07-22T06:57:20;98370.72;;;31.14;38.34
9423;BME280;4750;49.506;10.400;2022-07-22T07:00:06;98378.28;;;31.30;38.20
9423;BME280;4750;49.506;10.400;2022-07-22T07:03:11;98374.53;;;31.57;37.45
9423;BME280;4750;49.506;10.400;2022-07-22T07:05:55;98360.59;;;30.50;38.44
9423;BME280;4750;49.506;10.400;2022-07-22T07:08:39;98376.44;;;29.88;39.38
9423;BME280;4750;49.506;10.400;2022-07-22T07:11:24;98353.28;;;29.12;41.19
9423;BME280;4750;49.506;10.400;2022-07-22T07:14:08;98367.34;;;29.48;41.74
9423;BME280;4750;49.506;10.400;2022-07-22T07:16:53;98351.91;;;30.20;40.07
9423;BME280;4750;49.506;10.400;2022-07-22T07:19:37;98352.50;;;29.60;40.23
9423;BME280;4750;49.506;10.400;2022-07-22T07:22:21;98348.16;;;28.84;41.67
9423;BME280;4750;49.506;10.400;2022-07-22T07:25:07;98365.09;;;27.83;44.28
9423;BME280;4750;49.506;10.400;2022-07-22T07:27:52;98352.03;;;27.40;45.75
9423;BME280;4750;49.506;10.400;2022-07-22T07:30:38;98362.03;;;27.37;45.96
9423;BME280;4750;49.506;10.400;2022-07-22T07:33:22;98322.53;;;27.01;46.22
9423;BME280;4750;49.506;10.400;2022-07-22T07:36:07;98353.84;;;26.91;46.70
9423;BME280;4750;49.506;10.400;2022-07-22T07:38:59;98327.72;;;26.49;47.32
9423;BME280;4750;49.506;10.400;2022-07-22T07:41:44;98317.53;;;26.09;48.51
9423;BME280;4750;49.506;10.400;2022-07-22T07:44:31;98344.00;;;25.56;49.64
9423;BME280;4750;49.506;10.400;2022-07-22T07:47:15;98312.94;;;24.70;50.96
9423;BME280;4750;49.506;10.400;2022-07-22T07:50:03;98325.88;;;25.03;51.84
9423;BME280;4750;49.506;10.400;2022-07-22T07:52:48;98340.63;;;25.12;52.01
9423;BME280;4750;49.506;10.400;2022-07-22T07:55:32;98325.63;;;25.29;51.68
9423;BME280;4750;49.506;10.400;2022-07-22T07:58:21;98341.06;;;25.22;51.24
9423;BME280;4750;49.506;10.400;2022-07-22T08:01:06;98333.47;;;25.29;51.50
9423;BME280;4750;49.506;10.400;2022-07-22T08:03:52;98280.06;;;24.73;52.29
9423;BME280;4750;49.506;10.400;2022-07-22T08:06:36;98307.84;;;25.17;52.34
9423;BME280;4750;49.506;10.400;2022-07-22T08:09:19;98337.31;;;25.67;51.59
9423;BME280;4750;49.506;10.400;2022-07-22T08:12:05;98340.53;;;25.75;51.20
9423;BME280;4750;49.506;10.400;2022-07-22T08:15:12;98322.06;;;25.81;50.53
9423;BME280;4750;49.506;10.400;2022-07-22T08:18:09;98323.47;;;25.46;51.16
9423;BME280;4750;49.506;10.400;2022-07-22T08:20:53;98320.88;;;25.52;51.30
9423;BME280;4750;49.506;10.400;2022-07-22T08:23:44;98314.31;;;25.67;50.54
9423;BME280;4750;49.506;10.400;2022-07-22T08:26:29;98303.66;;;25.20;51.09
9423;BME280;4750;49.506;10.400;2022-07-22T08:29:13;98314.06;;;25.61;51.69
9423;BME280;4750;49.506;10.400;2022-07-22T08:31:58;98297.78;;;25.50;51.13
9423;BME280;4750;49.506;10.400;2022-07-22T08:34:42;98314.47;;;26.05;50.40
9423;BME280;4750;49.506;10.400;2022-07-22T08:37:26;98300.28;;;26.45;49.83
9423;BME280;4750;49.506;10.400;2022-07-22T08:40:11;98293.28;;;26.33;48.54
9423;BME280;4750;49.506;10.400;2022-07-22T08:42:55;98295.78;;;26.60;48.39
9423;BME280;4750;49.506;10.400;2022-07-22T08:45:40;98310.63;;;26.53;49.23
9423;BME280;4750;49.506;10.400;2022-07-22T08:48:24;98285.81;;;26.63;47.73
9423;BME280;4750;49.506;10.400;2022-07-22T08:51:20;98310.34;;;25.40;50.42
9423;BME280;4750;49.506;10.400;2022-07-22T08:54:24;98259.19;;;25.21;49.13
9423;BME280;4750;49.506;10.400;2022-07-22T08:57:08;98292.84;;;25.86;49.62
9423;BME280;4750;49.506;10.400;2022-07-22T08:59:55;98291.47;;;26.41;48.27
9423;BME280;4750;49.506;10.400;2022-07-22T09:02:41;98291.22;;;27.11;47.77
9423;BME280;4750;49.506;10.400;2022-07-22T09:05:33;98271.88;;;26.94;46.08
9423;BME280;4750;49.506;10.400;2022-07-22T09:08:20;98288.00;;;26.45;46.95
9423;BME280;4750;49.506;10.400;2022-07-22T09:11:19;98273.00;;;26.28;48.53
9423;BME280;4750;49.506;10.400;2022-07-22T09:14:46;98291.38;;;27.15;47.22
9423;BME280;4750;49.506;10.400;2022-07-22T09:17:51;98243.03;;;27.34;45.86
9423;BME280;4750;49.506;10.400;2022-07-22T09:20:57;98290.00;;;28.01;44.52
9423;BME280;4750;49.506;10.400;2022-07-22T09:23:59;98254.28;;;28.12;43.87
9423;BME280;4750;49.506;10.400;2022-07-22T09:26:43;98271.41;;;28.28;43.93
9423;BME280;4750;49.506;10.400;2022-07-22T09:29:49;98283.00;;;28.55;43.47
9423;BME280;4750;49.506;10.400;2022-07-22T09:32:43;98285.84;;;28.52;42.85
9423;BME280;4750;49.506;10.400;2022-07-22T09:36:02;98252.16;;;28.13;43.30
9423;BME280;4750;49.506;10.400;2022-07-22T09:38:46;98255.84;;;28.15;42.67
9423;BME280;4750;49.506;10.400;2022-07-22T09:41:30;98265.06;;;28.34;42.60
9423;BME280;4750;49.506;10.400;2022-07-22T09:44:21;98257.34;;;28.65;42.02
9423;BME280;4750;49.506;10.400;2022-07-22T09:47:27;98270.34;;;28.42;42.20
9423;BME280;4750;49.506;10.400;2022-07-22T09:50:33;98234.66;;;28.31;42.21
9423;BME280;4750;49.506;10.400;2022-07-22T09:53:33;98255.66;;;28.58;41.76
9423;BME280;4750;49.506;10.400;2022-07-22T09:56:28;98276.56;;;28.80;41.45
9423;BME280;4750;49.506;10.400;2022-07-22T09:59:14;98267.19;;;29.06;41.02
9423;BME280;4750;49.506;10.400;2022-07-22T10:02:03;98233.63;;;28.68;41.39
9423;BME280;4750;49.506;10.400;2022-07-22T10:04:48;98260.72;;;28.81;40.88
9423;BME280;4750;49.506;10.400;2022-07-22T10:07:36;98229.72;;;29.10;40.36
9423;BME280;4750;49.506;10.400;2022-07-22T10:10:25;98257.59;;;29.52;40.02
9423;BME280;4750;49.506;10.400;2022-07-22T10:13:09;98240.72;;;29.42;38.66
9423;BME280;4750;49.506;10.400;2022-07-22T10:15:55;98220.97;;;29.61;38.66
9423;BME280;4750;49.506;10.400;2022-07-22T10:18:44;98222.13;;;29.49;38.41
9423;BME280;4750;49.506;10.400;2022-07-22T10:21:33;98239.69;;;29.58;38.30
9423;BME280;4750;49.506;10.400;2022-07-22T10:24:19;98210.97;;;29.66;37.35
9423;BME280;4750;49.506;10.400;2022-07-22T10:27:55;98227.88;;;29.78;36.79
9423;BME280;4750;49.506;10.400;2022-07-22T10:30:39;98208.81;;;29.97;36.37
9423;BME280;4750;49.506;10.400;2022-07-22T10:33:29;98214.34;;;29.28;36.29
9423;BME280;4750;49.506;10.400;2022-07-22T10:36:13;98205.22;;;29.11;36.79
9423;BME280;4750;49.506;10.400;2022-07-22T10:41:52;98198.97;;;29.78;37.30
9423;BME280;4750;49.506;10.400;2022-07-22T10:44:49;98223.13;;;30.21;36.22
9423;BME280;4750;49.506;10.400;2022-07-22T10:47:55;98198.72;;;29.98;36.75
9423;BME280;4750;49.506;10.400;2022-07-22T10:50:45;98190.03;;;30.30;37.14
9423;BME280;4750;49.506;10.400;2022-07-22T10:53:53;98205.63;;;30.47;36.43
9423;BME280;4750;49.506;10.400;2022-07-22T10:56:38;98192.75;;;30.54;36.58
9423;BME280;4750;49.506;10.400;2022-07-22T10:59:22;98180.28;;;30.84;37.22
9423;BME280;4750;49.506;10.400;2022-07-22T11:02:10;98170.06;;;30.79;36.63
9423;BME280;4750;49.506;10.400;2022-07-22T11:04:57;98183.16;;;30.82;37.16
9423;BME280;4750;49.506;10.400;2022-07-22T11:07:46;98183.50;;;31.39;35.36
9423;BME280;4750;49.506;10.400;2022-07-22T11:10:30;98183.25;;;31.66;35.46
9423;BME280;4750;49.506;10.400;2022-07-22T11:13:31;98185.44;;;31.27;35.63
9423;BME280;4750;49.506;10.400;2022-07-22T11:16:23;98161.97;;;31.10;35.76
9423;BME280;4750;49.506;10.400;2022-07-22T11:19:08;98146.16;;;31.17;36.23
9423;BME280;4750;49.506;10.400;2022-07-22T11:21:54;98176.91;;;31.37;35.72
9423;BME280;4750;49.506;10.400;2022-07-22T11:24:40;98162.53;;;31.43;35.89
9423;BME280;4750;49.506;10.400;2022-07-22T11:27:25;98162.25;;;31.69;35.39
9423;BME280;4750;49.506;10.400;2022-07-22T11:30:09;98168.44;;;31.49;35.40
9423;BME280;4750;49.506;10.400;2022-07-22T11:32:53;98149.34;;;31.79;35.01
9423;BME280;4750;49.506;10.400;2022-07-22T11:35:37;98157.78;;;32.11;34.33
9423;BME280;4750;49.506;10.400;2022-07-22T11:38:21;98158.09;;;31.38;35.81
9423;BME280;4750;49.506;10.400;2022-07-22T11:41:05;98162.47;;;31.39;35.65
9423;BME280;4750;49.506;10.400;2022-07-22T11:43:50;98153.97;;;31.98;34.87
9423;BME280;4750;49.506;10.400;2022-07-22T11:46:41;98131.25;;;31.82;33.89
9423;BME280;4750;49.506;10.400;2022-07-22T11:49:28;98154.88;;;32.11;34.93
9423;BME280;4750;49.506;10.400;2022-07-22T11:52:12;98144.50;;;32.49;33.83
9423;BME280;4750;49.506;10.400;2022-07-22T11:54:56;98107.81;;;32.17;34.14
9423;BME280;4750;49.506;10.400;2022-07-22T11:57:48;98135.44;;;32.22;34.43
9423;BME280;4750;49.506;10.400;2022-07-22T12:00:32;98117.25;;;32.17;34.11
9423;BME280;4750;49.506;10.400;2022-07-22T12:03:16;98086.41;;;31.91;34.01
9423;BME280;4750;49.506;10.400;2022-07-22T12:06:05;98105.91;;;31.85;34.57
9423;BME280;4750;49.506;10.400;2022-07-22T12:08:55;98112.59;;;31.96;33.94
9423;BME280;4750;49.506;10.400;2022-07-22T12:11:44;98112.03;;;32.09;33.73
9423;BME280;4750;49.506;10.400;2022-07-22T12:14:31;98090.38;;;31.64;34.33
9423;BME280;4750;49.506;10.400;2022-07-22T12:17:15;98104.81;;;31.59;34.78
9423;BME280;4750;49.506;10.400;2022-07-22T12:20:11;98096.50;;;31.86;34.52
9423;BME280;4750;49.506;10.400;2022-07-22T12:22:56;98080.38;;;31.75;33.75
9423;BME280;4750;49.506;10.400;2022-07-22T12:25:57;98089.69;;;32.18;33.58
9423;BME280;4750;49.506;10.400;2022-07-22T12:28:41;98074.38;;;32.77;33.33
9423;BME280;4750;49.506;10.400;2022-07-22T12:31:25;98093.78;;;32.60;33.33
9423;BME280;4750;49.506;10.400;2022-07-22T12:34:09;98080.19;;;32.77;31.83
9423;BME280;4750;49.506;10.400;2022-07-22T12:36:53;98075.94;;;32.86;32.50
9423;BME280;4750;49.506;10.400;2022-07-22T12:39:37;98046.31;;;32.33;33.17
9423;BME280;4750;49.506;10.400;2022-07-22T12:42:24;98064.03;;;32.61;32.59
9423;BME280;4750;49.506;10.400;2022-07-22T12:45:16;98029.84;;;32.54;32.35
9423;BME280;4750;49.506;10.400;2022-07-22T12:53:37;98047.75;;;32.32;32.63
9423;BME280;4750;49.506;10.400;2022-07-22T12:56:21;98038.66;;;31.50;34.26
9423;BME280;4750;49.506;10.400;2022-07-22T12:59:05;98041.28;;;32.37;34.33
9423;BME280;4750;49.506;10.400;2022-07-22T13:01:49;98062.59;;;32.65;33.06
9423;BME280;4750;49.506;10.400;2022-07-22T13:04:33;98039.22;;;32.48;32.64
9423;BME280;4750;49.506;10.400;2022-07-22T13:07:17;98026.13;;;32.47;33.08
9423;BME280;4750;49.506;10.400;2022-07-22T13:10:01;98051.09;;;32.73;32.56
9423;BME280;4750;49.506;10.400;2022-07-22T13:12:46;98031.03;;;32.32;32.67
9423;BME280;4750;49.506;10.400;2022-07-22T13:15:30;98038.28;;;33.03;32.19
9423;BME280;4750;49.506;10.400;2022-07-22T13:18:14;98025.97;;;33.06;31.28
9423;BME280;4750;49.506;10.400;2022-07-22T13:20:59;98041.47;;;32.54;32.37
9423;BME280;4750;49.506;10.400;2022-07-22T13:23:43;98036.41;;;32.58;32.06
9423;BME280;4750;49.506;10.400;2022-07-22T13:26:27;98030.75;;;32.71;32.41
9423;BME280;4750;49.506;10.400;2022-07-22T13:29:11;98017.00;;;32.77;31.79
9423;BME280;4750;49.506;10.400;2022-07-22T13:31:56;98027.28;;;32.91;32.40
9423;BME280;4750;49.506;10.400;2022-07-22T13:34:40;98028.97;;;32.41;32.36
9423;BME280;4750;49.506;10.400;2022-07-22T13:37:24;98035.31;;;32.25;32.72
9423;BME280;4750;49.506;10.400;2022-07-22T13:40:09;98014.91;;;32.88;32.78
9423;BME280;4750;49.506;10.400;2022-07-22T13:42:53;98009.59;;;33.54;30.91
9423;BME280;4750;49.506;10.400;2022-07-22T13:45:37;98016.06;;;33.42;30.84
9423;BME280;4750;49.506;10.400;2022-07-22T13:48:21;98012.75;;;32.91;31.13
9423;BME280;4750;49.506;10.400;2022-07-22T13:51:05;97988.78;;;32.90;31.68
9423;BME280;4750;49.506;10.400;2022-07-22T13:53:49;98019.09;;;33.65;30.67
9423;BME280;4750;49.506;10.400;2022-07-22T13:56:34;98009.59;;;33.58;30.41
9423;BME280;4750;49.506;10.400;2022-07-22T13:59:18;97990.59;;;33.41;30.22
9423;BME280;4750;49.506;10.400;2022-07-22T14:02:02;97988.69;;;33.91;29.93
9423;BME280;4750;49.506;10.400;2022-07-22T14:04:46;97976.19;;;33.63;30.30
9423;BME280;4750;49.506;10.400;2022-07-22T14:07:30;97958.47;;;33.20;30.48
9423;BME280;4750;49.506;10.400;2022-07-22T14:10:14;97967.28;;;33.31;30.19
9423;BME280;4750;49.506;10.400;2022-07-22T14:12:58;97981.81;;;33.31;30.35
9423;BME280;4750;49.506;10.400;2022-07-22T14:15:42;97969.47;;;33.34;30.63
9423;BME280;4750;49.506;10.400;2022-07-22T14:18:26;97965.38;;;33.83;30.22
9423;BME280;4750;49.506;10.400;2022-07-22T14:21:10;97964.00;;;34.08;29.86
9423;BME280;4750;49.506;10.400;2022-07-22T14:23:54;97973.41;;;33.88;29.35
9423;BME280;4750;49.506;10.400;2022-07-22T14:26:38;97975.75;;;34.41;29.67
9423;BME280;4750;49.506;10.400;2022-07-22T14:29:23;97953.88;;;34.51;28.79
9423;BME280;4750;49.506;10.400;2022-07-22T14:32:07;97959.56;;;33.91;29.27
9423;BME280;4750;49.506;10.400;2022-07-22T14:34:52;97948.75;;;34.22;29.20
9423;BME280;4750;49.506;10.400;2022-07-22T14:37:35;97948.78;;;34.35;29.59
9423;BME280;4750;49.506;10.400;2022-07-22T14:40:19;97969.19;;;34.67;29.52
9423;BME280;4750;49.506;10.400;2022-07-22T14:43:04;97949.47;;;34.27;29.00
9423;BME280;4750;49.506;10.400;2022-07-22T14:45:48;97934.75;;;33.71;29.57
9423;BME280;4750;49.506;10.400;2022-07-22T14:48:33;97938.38;;;33.66;30.33
9423;BME280;4750;49.506;10.400;2022-07-22T14:51:18;97944.28;;;33.92;30.04
9423;BME280;4750;49.506;10.400;2022-07-22T14:54:02;97930.97;;;33.38;30.12
9423;BME280;4750;49.506;10.400;2022-07-22T14:56:46;97933.00;;;33.17;29.99
9423;BME280;4750;49.506;10.400;2022-07-22T14:59:30;97935.13;;;33.06;30.64
9423;BME280;4750;49.506;10.400;2022-07-22T15:02:15;97945.25;;;32.97;30.77